createdAt,value
2023-11-24T00:03:23.055Z,1.97
2023-11-24T00:07:22.918Z,1.97
2023-11-24T00:11:22.349Z,1.97
2023-11-24T00:15:22.190Z,1.97
2023-11-24T00:19:22.485Z,1.97
2023-11-24T00:23:22.646Z,1.97
2023-11-24T00:27:21.878Z,1.97
2023-11-24T00:31:22.705Z,1.97
2023-11-24T00:35:23.652Z,1.97
2023-11-24T00:39:21.975Z,1.97
2023-11-24T00:43:22.345Z,1.97
2023-11-24T00:47:22.900Z,1.97
2023-11-24T00:51:22.865Z,1.97
2023-11-24T00:55:22.111Z,1.97
2023-11-24T00:59:22.460Z,1.97
2023-11-24T01:03:23.392Z,1.97
2023-11-24T01:07:22.216Z,1.97
2023-11-24T01:11:22.476Z,1.97
2023-11-24T01:15:22.941Z,1.97
2023-11-24T01:19:22.379Z,1.97
2023-11-24T01:23:22.680Z,1.97
2023-11-24T01:27:22.065Z,1.97
2023-11-24T01:31:22.465Z,1.97
2023-11-24T01:35:22.886Z,1.97
2023-11-24T01:39:22.766Z,1.97
2023-11-24T01:43:22.488Z,1.97
2023-11-24T01:47:23.065Z,1.97
2023-11-24T01:51:22.831Z,1.97
2023-11-24T01:55:22.157Z,1.97
2023-11-24T01:59:22.428Z,1.97
2023-11-24T02:03:23.405Z,1.97
2023-11-24T02:07:22.676Z,1.97
2023-11-24T02:11:23.239Z,1.97
2023-11-24T02:15:22.677Z,1.97
2023-11-24T02:19:22.799Z,1.97
2023-11-24T02:23:22.889Z,1.97
2023-11-24T02:27:22.144Z,1.97
2023-11-24T02:31:23.025Z,1.97
2023-11-24T02:35:22.908Z,1.97
2023-11-24T02:39:22.111Z,1.97
2023-11-24T02:43:22.492Z,1.97
2023-11-24T02:47:22.869Z,1.97
2023-11-24T02:51:22.201Z,1.97
2023-11-24T02:55:22.708Z,1.97
2023-11-24T02:59:22.070Z,1.97
2023-11-24T03:03:23.015Z,1.97
2023-11-24T03:07:22.818Z,1.97
2023-11-24T03:11:22.148Z,1.97
2023-11-24T03:15:22.629Z,1.97
2023-11-24T03:19:22.952Z,1.97
2023-11-24T03:23:22.175Z,1.97
2023-11-24T03:27:22.568Z,1.97
2023-11-24T03:31:22.543Z,1.97
2023-11-24T03:35:23.130Z,1.97
2023-11-24T03:39:22.857Z,1.97
2023-11-24T03:43:22.648Z,1.97
2023-11-24T03:47:22.970Z,1.97
2023-11-24T03:51:22.949Z,1.97
2023-11-24T03:55:22.364Z,1.97
2023-11-24T03:59:22.448Z,1.97
2023-11-24T04:03:23.415Z,1.97
2023-11-24T04:07:23.170Z,1.97
2023-11-24T04:11:22.369Z,1.97
2023-11-24T04:15:22.708Z,1.97
2023-11-24T04:19:23.122Z,1.97
2023-11-24T04:23:22.258Z,1.97
2023-11-24T04:27:22.429Z,1.97
2023-11-24T04:31:22.962Z,1.97
2023-11-24T04:35:23.251Z,1.97
2023-11-24T04:39:22.608Z,1.97
2023-11-24T04:43:22.777Z,1.97
2023-11-24T04:47:22.406Z,1.97
2023-11-24T04:51:22.726Z,1.97
2023-11-24T04:55:22.778Z,1.97
2023-11-24T04:59:21.933Z,1.97
2023-11-24T05:03:22.980Z,1.97
2023-11-24T05:07:22.865Z,1.97
2023-11-24T05:11:23.191Z,1.97
2023-11-24T05:15:22.199Z,1.97
2023-11-24T05:19:22.736Z,1.97
2023-11-24T05:23:22.162Z,1.97
2023-11-24T05:27:25.236Z,1.97
2023-11-24T05:31:23.156Z,1.97
2023-11-24T05:35:22.919Z,1.97
2023-11-24T05:39:22.044Z,1.97
2023-11-24T05:43:22.409Z,1.97
2023-11-24T05:47:22.719Z,1.97
2023-11-24T05:51:22.539Z,1.97
2023-11-24T05:55:23.057Z,1.97
2023-11-24T05:59:22.141Z,1.97
2023-11-24T06:03:22.528Z,1.97
2023-11-24T06:07:23.028Z,1.97
2023-11-24T06:11:22.347Z,1.97
2023-11-24T06:15:22.410Z,1.97
2023-11-24T06:19:25.672Z,1.97
2023-11-24T06:23:22.569Z,1.97
2023-11-24T06:27:22.593Z,1.97
2023-11-24T06:31:26.312Z,1.97
2023-11-24T06:35:22.782Z,1.97
2023-11-24T06:39:22.356Z,1.97
2023-11-24T06:43:22.785Z,1.97
2023-11-24T06:47:23.041Z,1.97
2023-11-24T06:51:22.539Z,1.97
2023-11-24T06:55:22.643Z,1.97
2023-11-24T06:59:22.725Z,1.97
2023-11-24T07:03:23.631Z,1.97
2023-11-24T07:07:23.034Z,1.97
2023-11-24T07:11:24.369Z,1.97
2023-11-24T07:15:21.878Z,1.97
2023-11-24T07:19:23.396Z,1.97
2023-11-24T07:23:22.045Z,1.97
2023-11-24T07:27:22.086Z,1.97
2023-11-24T07:31:22.749Z,1.97
2023-11-24T07:35:23.750Z,1.97
2023-11-24T07:39:22.585Z,1.97
2023-11-24T07:43:22.442Z,1.97
2023-11-24T07:47:23.604Z,1.97
2023-11-24T07:51:22.575Z,1.97
2023-11-24T07:55:22.921Z,1.97
2023-11-24T07:59:22.047Z,1.97
2023-11-24T08:03:22.956Z,1.97
2023-11-24T08:07:23.066Z,1.97
2023-11-24T08:11:22.342Z,1.97
2023-11-24T08:15:22.933Z,1.97
2023-11-24T08:19:25.829Z,1.97
2023-11-24T08:23:22.113Z,1.97
2023-11-24T08:27:23.754Z,1.97
2023-11-24T08:31:23.037Z,1.97
2023-11-24T08:35:22.630Z,1.97
2023-11-24T08:39:23.953Z,1.97
2023-11-24T08:43:22.379Z,1.97
2023-11-24T08:47:23.244Z,1.97
2023-11-24T08:51:23.066Z,1.97
2023-11-24T08:55:22.941Z,1.97
2023-11-24T08:59:22.848Z,1.97
2023-11-24T09:03:22.994Z,1.97
2023-11-24T09:07:22.818Z,1.97
2023-11-24T09:11:22.922Z,1.97
2023-11-24T09:15:22.967Z,1.97
2023-11-24T09:19:24.608Z,1.97
2023-11-24T09:23:22.065Z,1.97
2023-11-24T09:27:22.194Z,1.97
2023-11-24T09:31:23.289Z,1.97
2023-11-24T09:35:26.079Z,1.97
2023-11-24T09:39:22.579Z,1.97
2023-11-24T09:43:26.489Z,1.97
2023-11-24T09:47:40.585Z,1.97
2023-11-24T09:51:24.973Z,1.97
2023-11-24T09:55:23.867Z,1.97
2023-11-24T09:59:22.401Z,1.97
2023-11-24T10:03:26.816Z,1.97
2023-11-24T10:07:23.159Z,1.97
2023-11-24T10:11:22.385Z,1.97
2023-11-24T10:15:22.606Z,1.97
2023-11-24T10:19:23.491Z,1.97
2023-11-24T10:23:22.992Z,1.97
2023-11-24T10:45:22.958Z,1.97
2023-11-24T10:47:25.854Z,1.97
2023-11-24T10:49:22.418Z,1.97
2023-11-24T10:51:25.326Z,1.97
2023-11-24T10:53:22.714Z,1.97
2023-11-24T10:55:22.451Z,1.97
2023-11-24T10:57:22.609Z,1.97
2023-11-24T10:59:22.136Z,1.97
2023-11-24T11:01:25.594Z,1.97
2023-11-24T11:03:22.830Z,1.97
2023-11-24T11:05:23.253Z,1.97
2023-11-24T11:07:22.654Z,1.97
2023-11-24T11:09:22.136Z,1.97
2023-11-24T11:11:24.039Z,1.97
2023-11-24T11:13:22.613Z,1.97
2023-11-24T11:15:25.886Z,1.97
2023-11-24T11:17:22.554Z,1.97
2023-11-24T11:19:22.976Z,1.97
2023-11-24T11:21:24.906Z,1.97
2023-11-24T11:23:22.225Z,1.97
2023-11-24T11:25:22.796Z,1.97
2023-11-24T11:27:22.548Z,1.97
2023-11-24T11:29:22.589Z,1.97
2023-11-24T11:31:23.013Z,1.97
2023-11-24T11:33:24.856Z,1.97
2023-11-24T11:35:22.673Z,1.97
2023-11-24T11:37:21.989Z,1.97
2023-11-24T11:39:24.608Z,1.97
2023-11-24T11:41:22.742Z,1.97
2023-11-24T11:43:23.763Z,1.97
2023-11-24T11:45:25.574Z,1.97
2023-11-24T11:47:23.393Z,1.97
2023-11-24T11:49:22.909Z,1.97
2023-11-24T11:51:22.211Z,1.97
2023-11-24T11:53:23.676Z,1.97
2023-11-24T11:55:24.983Z,1.97
2023-11-24T11:57:21.723Z,1.97
2023-11-24T11:59:22.698Z,0.58
2023-11-24T12:01:22.518Z,0.58
2023-11-24T12:03:28.582Z,0.58
2023-11-24T12:05:22.583Z,1.23
2023-11-24T12:07:22.688Z,1.23
2023-11-24T12:09:22.610Z,1.23
2023-11-24T12:11:22.421Z,1.7
2023-11-24T12:13:23.306Z,1.7
2023-11-24T12:15:22.229Z,1.7
2023-11-24T12:17:24.015Z,1.9
2023-11-24T12:19:22.342Z,1.9
2023-11-24T12:21:22.936Z,1.9
2023-11-24T12:23:22.692Z,2.43
2023-11-24T12:25:40.623Z,2.43
2023-11-24T12:27:22.616Z,2.43
2023-11-24T12:29:22.610Z,2.41
2023-11-24T12:31:22.246Z,2.41
2023-11-24T12:33:23.000Z,2.41
2023-11-24T12:35:22.419Z,2.41
2023-11-24T12:37:23.076Z,2.41
2023-11-24T12:39:22.422Z,2.41
2023-11-24T12:41:22.365Z,2.41
2023-11-24T12:43:22.787Z,2.41
2023-11-24T12:45:24.069Z,2.41
2023-11-24T12:47:22.768Z,2.41
2023-11-24T12:49:22.968Z,2.41
2023-11-24T12:51:24.034Z,2.41
2023-11-24T12:53:22.928Z,2.41
2023-11-24T12:55:22.589Z,2.41
2023-11-24T12:57:21.856Z,2.41
2023-11-24T12:59:22.672Z,2.41
2023-11-24T13:01:26.755Z,2.41
2023-11-24T13:03:22.154Z,2.41
2023-11-24T13:05:26.582Z,2.41
2023-11-24T13:07:22.426Z,2.41
2023-11-24T13:09:22.481Z,2.41
2023-11-24T13:11:22.855Z,2.41
2023-11-24T13:13:37.210Z,2.41
2023-11-24T13:15:22.878Z,2.41
2023-11-24T13:17:23.021Z,2.41
2023-11-24T13:19:23.656Z,2.41
2023-11-24T13:21:22.368Z,2.41
2023-11-24T13:23:23.056Z,2.41
2023-11-24T13:25:22.801Z,2.41
2023-11-24T13:27:21.930Z,2.41
2023-11-24T13:29:22.825Z,2.41
2023-11-24T13:31:22.862Z,2.41
2023-11-24T13:33:22.912Z,2.41
2023-11-24T13:35:23.678Z,1.19
2023-11-24T13:37:22.742Z,1.22
2023-11-24T13:39:22.274Z,1.22
2023-11-24T13:41:23.073Z,1.99
2023-11-24T13:43:23.117Z,2.02
2023-11-24T13:45:22.201Z,2.02
2023-11-24T13:47:23.665Z,2.35
2023-11-24T13:49:22.537Z,2.47
2023-11-24T13:51:26.196Z,2.47
2023-11-24T13:53:22.584Z,2.66
2023-11-24T13:55:22.482Z,2.72
2023-11-24T13:57:22.644Z,2.72
2023-11-24T13:59:22.467Z,3.08
2023-11-24T14:01:26.107Z,3.1
2023-11-24T14:03:24.161Z,3.1
2023-11-24T14:05:25.438Z,3.23
2023-11-24T14:07:22.896Z,3.21
2023-11-24T14:09:22.305Z,3.21
2023-11-24T14:11:23.469Z,3.31
2023-11-24T14:13:22.714Z,3.31
2023-11-24T14:15:22.661Z,3.31
2023-11-24T14:17:22.654Z,3.52
2023-11-24T14:19:22.769Z,3.41
2023-11-24T14:21:22.424Z,3.41
2023-11-24T14:23:25.800Z,3.41
2023-11-24T14:25:22.673Z,3.41
2023-11-24T14:27:22.019Z,3.41
2023-11-24T14:29:24.355Z,3.41
2023-11-24T14:31:22.665Z,3.41
2023-11-24T14:33:22.503Z,3.41
2023-11-24T14:35:23.742Z,3.41
2023-11-24T14:37:22.460Z,3.41
2023-11-24T14:39:22.910Z,3.41
2023-11-24T14:41:23.726Z,3.41
2023-11-24T14:43:22.119Z,3.41
2023-11-24T14:45:22.763Z,3.41
2023-11-24T14:47:22.934Z,3.41
2023-11-24T14:49:22.789Z,3.41
2023-11-24T14:51:22.307Z,3.41
2023-11-24T14:53:23.199Z,3.41
2023-11-24T14:55:22.783Z,3.41
2023-11-24T14:57:22.372Z,3.41
2023-11-24T14:59:24.359Z,3.41
2023-11-24T15:01:25.028Z,3.41
2023-11-24T15:03:23.929Z,3.41
2023-11-24T15:05:23.907Z,3.41
2023-11-24T15:07:22.329Z,3.41
2023-11-24T15:09:22.509Z,3.41
2023-11-24T15:11:23.591Z,3.41
2023-11-24T15:13:23.083Z,3.41
2023-11-24T15:15:22.507Z,3.41
2023-11-24T15:17:22.920Z,3.41
2023-11-24T15:19:22.811Z,3.41
2023-11-24T15:21:36.716Z,3.41
2023-11-24T15:23:25.363Z,3.41
2023-11-24T15:25:22.728Z,3.41
2023-11-24T15:27:21.919Z,3.41
2023-11-24T15:29:23.094Z,3.41
2023-11-24T15:31:22.679Z,3.41
2023-11-24T15:33:22.933Z,3.41
2023-11-24T15:35:22.857Z,3.41
2023-11-24T15:37:23.056Z,3.41
2023-11-24T15:39:22.255Z,3.41
2023-11-24T15:41:23.620Z,3.41
2023-11-24T15:43:22.375Z,3.41
2023-11-24T15:45:22.745Z,3.41
2023-11-24T15:47:23.424Z,3.41
2023-11-24T15:49:28.768Z,3.41
2023-11-24T15:51:22.641Z,3.41
2023-11-24T15:53:23.496Z,3.41
2023-11-24T15:55:23.036Z,3.41
2023-11-24T15:57:22.245Z,3.41
2023-11-24T15:59:22.742Z,3.41
2023-11-24T16:01:24.995Z,3.41
2023-11-24T16:03:24.285Z,3.41
2023-11-24T16:05:23.095Z,3.41
2023-11-24T16:07:22.345Z,3.41
2023-11-24T16:09:22.524Z,3.41
2023-11-24T16:11:23.595Z,3.41
2023-11-24T16:13:23.595Z,3.41
2023-11-24T16:15:22.679Z,3.41
2023-11-24T16:17:23.133Z,3.41
2023-11-24T16:19:33.753Z,3.41
2023-11-24T16:21:22.320Z,3.41
2023-11-24T16:23:25.868Z,3.41
2023-11-24T16:25:22.219Z,3.41
2023-11-24T16:27:21.856Z,3.41
2023-11-24T16:29:22.624Z,3.41
2023-11-24T16:31:22.508Z,3.41
2023-11-24T16:33:23.108Z,3.41
2023-11-24T16:35:22.303Z,3.41
2023-11-24T16:37:22.679Z,3.41
2023-11-24T16:39:22.504Z,3.41
2023-11-24T16:41:22.508Z,3.41
2023-11-24T16:43:23.958Z,3.41
2023-11-24T16:45:22.339Z,3.41
2023-11-24T16:47:23.386Z,3.41
2023-11-24T16:49:22.834Z,3.41
2023-11-24T16:51:22.442Z,3.41
2023-11-24T16:53:22.905Z,3.41
2023-11-24T16:55:22.504Z,3.41
2023-11-24T16:57:22.632Z,3.41
2023-11-24T16:59:22.648Z,3.41
2023-11-24T17:01:25.388Z,3.41
2023-11-24T17:03:23.086Z,3.41
2023-11-24T17:05:23.258Z,3.41
2023-11-24T17:07:22.226Z,3.41
2023-11-24T17:09:22.746Z,3.41
2023-11-24T17:11:23.683Z,3.41
2023-11-24T17:13:22.148Z,3.41
2023-11-24T17:15:22.474Z,3.41
2023-11-24T17:17:23.209Z,3.41
2023-11-24T17:19:23.429Z,3.41
2023-11-24T17:21:23.800Z,3.41
2023-11-24T17:23:22.451Z,3.41
2023-11-24T17:25:32.265Z,3.41
2023-11-24T17:27:22.384Z,3.41
2023-11-24T17:29:22.261Z,3.41
2023-11-24T17:31:26.683Z,3.41
2023-11-24T17:33:22.384Z,3.41
2023-11-24T17:35:23.869Z,3.41
2023-11-24T17:37:22.560Z,3.41
2023-11-24T17:39:22.409Z,3.41
2023-11-24T17:41:22.861Z,3.41
2023-11-24T17:43:22.365Z,3.41
2023-11-24T17:45:22.476Z,3.41
2023-11-24T17:47:26.166Z,3.41
2023-11-24T17:49:23.048Z,3.41
2023-11-24T17:51:22.582Z,3.41
2023-11-24T17:53:22.096Z,3.41
2023-11-24T17:55:22.635Z,3.41
2023-11-24T17:57:21.875Z,3.41
2023-11-24T17:59:22.964Z,3.41
2023-11-24T18:01:24.200Z,3.41
2023-11-24T18:03:22.657Z,3.41
2023-11-24T18:05:22.733Z,3.41
2023-11-24T18:07:24.236Z,3.41
2023-11-24T18:09:22.784Z,3.41
2023-11-24T18:11:22.476Z,3.41
2023-11-24T18:13:23.022Z,3.41
2023-11-24T18:15:22.639Z,3.41
2023-11-24T18:17:22.788Z,3.41
2023-11-24T18:19:22.814Z,3.41
2023-11-24T18:21:24.563Z,3.41
2023-11-24T18:23:22.986Z,3.41
2023-11-24T18:25:22.571Z,3.41
2023-11-24T18:27:21.826Z,3.41
2023-11-24T18:29:22.489Z,3.41
2023-11-24T18:31:22.666Z,3.41
2023-11-24T18:33:26.345Z,3.41
2023-11-24T18:35:22.717Z,3.41
2023-11-24T18:37:22.398Z,3.41
2023-11-24T18:39:22.688Z,3.41
2023-11-24T18:41:25.375Z,3.41
2023-11-24T18:43:30.675Z,3.41
2023-11-24T18:45:22.738Z,3.41
2023-11-24T18:47:25.804Z,3.41
2023-11-24T18:49:22.981Z,3.41
2023-11-24T18:51:22.412Z,3.41
2023-11-24T18:53:22.968Z,3.41
2023-11-24T18:55:24.308Z,3.41
2023-11-24T18:57:22.026Z,3.41
2023-11-24T18:59:22.695Z,3.41
2023-11-24T19:01:26.911Z,3.41
2023-11-24T19:03:22.658Z,3.41
2023-11-24T19:05:23.760Z,3.41
2023-11-24T19:07:22.148Z,3.41
2023-11-24T19:09:22.488Z,3.41
2023-11-24T19:11:22.537Z,3.41
2023-11-24T19:13:23.013Z,3.41
2023-11-24T19:15:22.508Z,3.41
2023-11-24T19:17:22.386Z,3.41
2023-11-24T19:19:22.804Z,3.41
2023-11-24T19:21:24.753Z,3.41
2023-11-24T19:23:22.332Z,3.41
2023-11-24T19:25:22.709Z,3.41
2023-11-24T19:27:22.437Z,3.41
2023-11-24T19:29:35.404Z,3.41
2023-11-24T19:31:22.992Z,3.41
2023-11-24T19:33:22.950Z,3.41
2023-11-24T19:35:22.163Z,3.41
2023-11-24T19:37:23.267Z,3.41
2023-11-24T19:39:22.067Z,3.41
2023-11-24T19:41:23.153Z,3.41
2023-11-24T19:43:22.820Z,3.41
2023-11-24T19:45:22.210Z,3.41
2023-11-24T19:47:22.504Z,3.41
2023-11-24T19:49:22.878Z,3.41
2023-11-24T19:51:22.387Z,3.41
2023-11-24T19:53:23.171Z,3.41
2023-11-24T19:55:22.317Z,3.41
2023-11-24T19:57:21.762Z,3.41
2023-11-24T19:59:22.760Z,3.41
2023-11-24T20:01:29.946Z,3.41
2023-11-24T20:03:23.869Z,3.41
2023-11-24T20:05:22.258Z,3.41
2023-11-24T20:07:25.085Z,3.41
2023-11-24T20:09:22.181Z,3.41
2023-11-24T20:11:23.247Z,3.41
2023-11-24T20:13:22.549Z,3.41
2023-11-24T20:15:22.142Z,3.41
2023-11-24T20:17:23.816Z,3.41
2023-11-24T20:19:22.461Z,3.41
2023-11-24T20:21:25.229Z,3.41
2023-11-24T20:23:22.412Z,3.41
2023-11-24T20:25:22.243Z,3.41
2023-11-24T20:27:23.080Z,3.41
2023-11-24T20:29:22.977Z,3.41
2023-11-24T20:31:22.691Z,3.41
2023-11-24T20:33:22.376Z,3.41
2023-11-24T20:35:23.888Z,3.41
2023-11-24T20:37:25.491Z,3.41
2023-11-24T20:39:23.615Z,3.41
2023-11-24T20:41:23.584Z,3.41
2023-11-24T20:43:22.653Z,3.41
2023-11-24T20:45:22.024Z,3.41
2023-11-24T20:47:23.029Z,3.41
2023-11-24T20:49:22.686Z,3.41
2023-11-24T20:51:24.573Z,3.41
2023-11-24T20:53:22.652Z,3.41
2023-11-24T20:55:22.420Z,3.41
2023-11-24T20:57:21.958Z,3.41
2023-11-24T20:59:22.788Z,3.41
2023-11-24T21:01:26.958Z,3.41
2023-11-24T21:03:23.219Z,3.41
2023-11-24T21:05:23.208Z,3.41
2023-11-24T21:07:25.622Z,3.41
2023-11-24T21:09:22.968Z,3.41
2023-11-24T21:11:22.876Z,3.41
2023-11-24T21:13:22.348Z,3.41
2023-11-24T21:15:22.835Z,3.41
2023-11-24T21:17:22.732Z,3.41
2023-11-24T21:19:23.284Z,3.41
2023-11-24T21:21:22.457Z,3.41
2023-11-24T21:23:23.267Z,3.41
2023-11-24T21:25:22.634Z,3.41
2023-11-24T21:27:25.360Z,3.41
2023-11-24T21:29:22.704Z,3.41
2023-11-24T21:31:22.601Z,3.41
2023-11-24T21:33:23.543Z,3.41
2023-11-24T21:35:22.761Z,3.41
2023-11-24T21:37:22.224Z,3.41
2023-11-24T21:39:23.516Z,3.41
2023-11-24T21:41:22.830Z,3.41
2023-11-24T21:43:23.089Z,3.41
2023-11-24T21:45:24.854Z,3.41
2023-11-24T21:47:24.291Z,3.41
2023-11-24T21:49:22.773Z,3.41
2023-11-24T21:51:22.265Z,3.41
2023-11-24T21:53:22.964Z,3.41
2023-11-24T21:55:23.686Z,3.41
2023-11-24T21:57:22.974Z,3.41
2023-11-24T21:59:22.610Z,3.41
2023-11-24T22:01:25.708Z,3.41
2023-11-24T22:03:27.240Z,3.41
2023-11-24T22:05:22.990Z,3.41
2023-11-24T22:07:23.712Z,3.41
2023-11-24T22:09:22.197Z,3.41
2023-11-24T22:11:22.299Z,3.41
2023-11-24T22:13:24.042Z,3.41
2023-11-24T22:15:22.252Z,3.41
2023-11-24T22:17:23.484Z,3.41
2023-11-24T22:19:22.450Z,3.41
2023-11-24T22:21:25.805Z,3.41
2023-11-24T22:23:22.467Z,3.41
2023-11-24T22:25:22.498Z,3.41
2023-11-24T22:27:22.704Z,3.41
2023-11-24T22:29:22.523Z,3.41
2023-11-24T22:31:26.390Z,3.41
2023-11-24T22:33:22.957Z,3.41
2023-11-24T22:35:22.247Z,3.41
2023-11-24T22:37:25.973Z,3.41
2023-11-24T22:39:22.096Z,3.41
2023-11-24T22:41:23.240Z,3.41
2023-11-24T22:43:22.770Z,3.41
2023-11-24T22:45:25.729Z,3.41
2023-11-24T22:47:23.574Z,3.41
2023-11-24T22:49:22.637Z,3.41
2023-11-24T22:51:23.003Z,3.41
2023-11-24T22:53:22.735Z,3.41
2023-11-24T22:55:22.264Z,3.41
2023-11-24T22:57:22.724Z,3.41
2023-11-24T22:59:22.423Z,3.41
2023-11-24T23:01:22.919Z,3.41
2023-11-24T23:03:24.618Z,3.41
2023-11-24T23:05:22.843Z,3.41
2023-11-24T23:07:23.047Z,3.41
2023-11-24T23:09:22.657Z,3.41
2023-11-24T23:11:22.352Z,3.41
2023-11-24T23:13:22.782Z,3.41
2023-11-24T23:15:22.155Z,3.41
2023-11-24T23:17:22.195Z,3.41
2023-11-24T23:19:23.468Z,3.41
2023-11-24T23:21:24.037Z,3.41
2023-11-24T23:23:40.166Z,3.41
2023-11-24T23:25:22.346Z,3.41
2023-11-24T23:27:21.960Z,3.41
2023-11-24T23:29:22.801Z,3.41
2023-11-24T23:31:25.703Z,3.41
2023-11-24T23:33:39.145Z,3.41
2023-11-24T23:35:22.780Z,3.41
2023-11-24T23:37:22.555Z,3.41
2023-11-24T23:39:22.840Z,3.41
2023-11-24T23:41:23.209Z,3.41
2023-11-24T23:43:22.532Z,3.41
2023-11-24T23:45:22.008Z,3.41
2023-11-24T23:47:23.921Z,3.41
2023-11-24T23:49:22.725Z,3.41
2023-11-24T23:51:28.727Z,3.41
2023-11-24T23:53:22.725Z,3.41
2023-11-24T23:55:22.231Z,3.41
2023-11-24T23:57:21.839Z,3.41
2023-11-24T23:59:22.967Z,3.41
